sensor_id;sensor_type;location;lat;lon;timestamp;pressure;altitude;pressure_sealevel;temperature;humidity
42105;BME280;70664;51.472;5.712;2023-07-02T00:01:51;100569.97;;;22.02;62.61
42105;BME280;70664;51.472;5.712;2023-07-02T00:04:17;100564.75;;;22.02;62.66
42105;BME280;70664;51.472;5.712;2023-07-02T00:06:48;100557.81;;;22.01;62.61
42105;BME280;70664;51.472;5.712;2023-07-02T00:09:15;100558.69;;;22.02;62.42
42105;BME280;70664;51.472;5.712;2023-07-02T00:11:44;100549.94;;;22.01;62.38
42105;BME280;70664;51.472;5.712;2023-07-02T00:14:12;100550.03;;;21.99;62.61
42105;BME280;70664;51.472;5.712;2023-07-02T00:16:42;100549.94;;;22.01;62.61
42105;BME280;70664;51.472;5.712;2023-07-02T00:19:08;100546.56;;;21.99;62.42
42105;BME280;70664;51.472;5.712;2023-07-02T00:21:35;100538.72;;;21.99;62.50
42105;BME280;70664;51.472;5.712;2023-07-02T00:24:03;100537.88;;;21.98;62.38
42105;BME280;70664;51.472;5.712;2023-07-02T00:26:28;100540.56;;;21.97;62.66
42105;BME280;70664;51.472;5.712;2023-07-02T00:28:55;100542.41;;;21.95;62.74
42105;BME280;70664;51.472;5.712;2023-07-02T00:31:23;100535.56;;;21.92;62.92
42105;BME280;70664;51.472;5.712;2023-07-02T00:33:50;100533.88;;;21.91;62.96
42105;BME280;70664;51.472;5.712;2023-07-02T00:36:16;100543.56;;;21.89;63.00
42105;BME280;70664;51.472;5.712;2023-07-02T00:38:45;100543.56;;;21.89;62.99
42105;BME280;70664;51.472;5.712;2023-07-02T00:41:12;100541.88;;;21.88;63.24
42105;BME280;70664;51.472;5.712;2023-07-02T00:43:38;100537.56;;;21.87;63.28
42105;BME280;70664;51.472;5.712;2023-07-02T00:46:19;100544.56;;;21.87;62.93
42105;BME280;70664;51.472;5.712;2023-07-02T00:48:50;100525.38;;;21.86;63.00
42105;BME280;70664;51.472;5.712;2023-07-02T00:51:27;100518.41;;;21.87;63.21
42105;BME280;70664;51.472;5.712;2023-07-02T00:53:55;100522.00;;;21.84;62.76
42105;BME280;70664;51.472;5.712;2023-07-02T00:56:23;100524.63;;;21.84;63.21
42105;BME280;70664;51.472;5.712;2023-07-02T00:58:51;100529.00;;;21.83;62.92
42105;BME280;70664;51.472;5.712;2023-07-02T01:01:21;100530.75;;;21.83;63.26
42105;BME280;70664;51.472;5.712;2023-07-02T01:04:01;100527.31;;;21.82;63.18
42105;BME280;70664;51.472;5.712;2023-07-02T01:06:30;100539.63;;;21.80;63.17
42105;BME280;70664;51.472;5.712;2023-07-02T01:08:58;100544.84;;;21.80;63.13
42105;BME280;70664;51.472;5.712;2023-07-02T01:11:59;100560.56;;;21.80;62.91
42105;BME280;70664;51.472;5.712;2023-07-02T01:14:41;100560.63;;;21.79;63.16
42105;BME280;70664;51.472;5.712;2023-07-02T01:17:08;100552.78;;;21.79;63.26
42105;BME280;70664;51.472;5.712;2023-07-02T01:19:49;100551.06;;;21.78;63.26
42105;BME280;70664;51.472;5.712;2023-07-02T01:22:23;100559.78;;;21.78;63.29
42105;BME280;70664;51.472;5.712;2023-07-02T01:24:51;100552.84;;;21.77;63.15
42105;BME280;70664;51.472;5.712;2023-07-02T01:27:17;100568.56;;;21.77;62.86
42105;BME280;70664;51.472;5.712;2023-07-02T01:29:44;100566.84;;;21.76;63.13
42105;BME280;70664;51.472;5.712;2023-07-02T01:32:13;100570.31;;;21.77;62.93
42105;BME280;70664;51.472;5.712;2023-07-02T01:34:40;100572.16;;;21.75;63.10
42105;BME280;70664;51.472;5.712;2023-07-02T01:37:06;100563.47;;;21.74;62.79
42105;BME280;70664;51.472;5.712;2023-07-02T01:39:33;100569.53;;;21.75;62.96
42105;BME280;70664;51.472;5.712;2023-07-02T01:44:37;100572.25;;;21.73;62.40
42105;BME280;70664;51.472;5.712;2023-07-02T01:47:04;100570.47;;;21.74;62.73
42105;BME280;70664;51.472;5.712;2023-07-02T01:49:30;100569.72;;;21.72;62.42
42105;BME280;70664;51.472;5.712;2023-07-02T01:51:56;100574.94;;;21.72;62.70
42105;BME280;70664;51.472;5.712;2023-07-02T01:54:26;100580.09;;;21.73;62.73
42105;BME280;70664;51.472;5.712;2023-07-02T01:56:53;100583.63;;;21.72;62.58
42105;BME280;70664;51.472;5.712;2023-07-02T01:59:19;100573.25;;;21.70;62.46
42105;BME280;70664;51.472;5.712;2023-07-02T02:01:45;100580.22;;;21.70;62.45
42105;BME280;70664;51.472;5.712;2023-07-02T02:04:11;100577.63;;;21.70;62.55
42105;BME280;70664;51.472;5.712;2023-07-02T02:06:38;100577.63;;;21.70;62.26
42105;BME280;70664;51.472;5.712;2023-07-02T02:09:05;100582.00;;;21.69;62.54
42105;BME280;70664;51.472;5.712;2023-07-02T02:11:33;100585.47;;;21.70;62.36
42105;BME280;70664;51.472;5.712;2023-07-02T02:13:59;100586.38;;;21.69;62.41
42105;BME280;70664;51.472;5.712;2023-07-02T02:16:27;100579.53;;;21.66;62.44
42105;BME280;70664;51.472;5.712;2023-07-02T02:18:53;100576.84;;;21.68;62.64
42105;BME280;70664;51.472;5.712;2023-07-02T02:21:20;100576.00;;;21.67;62.22
42105;BME280;70664;51.472;5.712;2023-07-02T02:23:47;100583.91;;;21.66;62.47
42105;BME280;70664;51.472;5.712;2023-07-02T02:26:14;100581.28;;;21.66;62.24
42105;BME280;70664;51.472;5.712;2023-07-02T02:28:41;100585.59;;;21.67;62.15
42105;BME280;70664;51.472;5.712;2023-07-02T02:31:06;100585.69;;;21.65;62.56
42105;BME280;70664;51.472;5.712;2023-07-02T02:33:33;100585.69;;;21.65;62.25
42105;BME280;70664;51.472;5.712;2023-07-02T02:35:59;100581.38;;;21.64;62.58
42105;BME280;70664;51.472;5.712;2023-07-02T02:38:25;100587.44;;;21.65;62.50
42105;BME280;70664;51.472;5.712;2023-07-02T02:40:50;100584.81;;;21.65;62.04
42105;BME280;70664;51.472;5.712;2023-07-02T02:43:16;100588.38;;;21.64;61.98
42105;BME280;70664;51.472;5.712;2023-07-02T02:45:42;100598.00;;;21.63;62.45
42105;BME280;70664;51.472;5.712;2023-07-02T02:48:08;100589.28;;;21.63;62.06
42105;BME280;70664;51.472;5.712;2023-07-02T02:50:34;100596.28;;;21.62;62.02
42105;BME280;70664;51.472;5.712;2023-07-02T02:53:00;100591.91;;;21.63;62.04
42105;BME280;70664;51.472;5.712;2023-07-02T02:55:26;100598.09;;;21.60;62.28
42105;BME280;70664;51.472;5.712;2023-07-02T02:57:52;100598.94;;;21.61;62.18
42105;BME280;70664;51.472;5.712;2023-07-02T03:00:17;100601.56;;;21.61;62.09
42105;BME280;70664;51.472;5.712;2023-07-02T03:02:43;100606.75;;;21.62;61.59
42105;BME280;70664;51.472;5.712;2023-07-02T03:05:09;100611.13;;;21.62;61.74
42105;BME280;70664;51.472;5.712;2023-07-02T03:07:35;100606.88;;;21.59;62.03
42105;BME280;70664;51.472;5.712;2023-07-02T03:10:01;100612.09;;;21.59;61.91
42105;BME280;70664;51.472;5.712;2023-07-02T03:12:27;100618.19;;;21.60;61.66
42105;BME280;70664;51.472;5.712;2023-07-02T03:14:53;100623.38;;;21.61;61.86
42105;BME280;70664;51.472;5.712;2023-07-02T03:17:21;100621.72;;;21.59;61.89
42105;BME280;70664;51.472;5.712;2023-07-02T03:19:47;100615.59;;;21.60;61.62
42105;BME280;70664;51.472;5.712;2023-07-02T03:22:13;100630.50;;;21.58;61.50
42105;BME280;70664;51.472;5.712;2023-07-02T03:24:39;100634.72;;;21.60;61.69
42105;BME280;70664;51.472;5.712;2023-07-02T03:27:06;100626.09;;;21.58;61.59
42105;BME280;70664;51.472;5.712;2023-07-02T03:29:33;100641.78;;;21.58;61.48
42105;BME280;70664;51.472;5.712;2023-07-02T03:31:59;100630.50;;;21.58;61.58
42105;BME280;70664;51.472;5.712;2023-07-02T03:34:26;100640.03;;;21.59;61.54
42105;BME280;70664;51.472;5.712;2023-07-02T03:36:51;100642.72;;;21.57;61.35
42105;BME280;70664;51.472;5.712;2023-07-02T03:39:17;100646.19;;;21.58;61.23
42105;BME280;70664;51.472;5.712;2023-07-02T03:41:44;100654.88;;;21.58;61.61
42105;BME280;70664;51.472;5.712;2023-07-02T03:44:10;100648.03;;;21.55;61.52
42105;BME280;70664;51.472;5.712;2023-07-02T03:46:36;100649.72;;;21.57;61.59
42105;BME280;70664;51.472;5.712;2023-07-02T03:49:03;100653.19;;;21.57;61.24
42105;BME280;70664;51.472;5.712;2023-07-02T03:51:30;100651.44;;;21.58;61.06
42105;BME280;70664;51.472;5.712;2023-07-02T03:53:58;100656.72;;;21.56;61.47
42105;BME280;70664;51.472;5.712;2023-07-02T03:56:24;100661.03;;;21.57;61.43
42105;BME280;70664;51.472;5.712;2023-07-02T03:58:50;100661.13;;;21.55;61.38
42105;BME280;70664;51.472;5.712;2023-07-02T04:01:16;100665.47;;;21.55;61.46
42105;BME280;70664;51.472;5.712;2023-07-02T04:03:50;100664.66;;;21.54;61.03
42105;BME280;70664;51.472;5.712;2023-07-02T04:06:16;100660.31;;;21.53;61.52
42105;BME280;70664;51.472;5.712;2023-07-02T04:08:43;100667.25;;;21.54;61.60
42105;BME280;70664;51.472;5.712;2023-07-02T04:11:10;100662.06;;;21.53;61.27
42105;BME280;70664;51.472;5.712;2023-07-02T04:13:36;100671.63;;;21.54;61.18
42105;BME280;70664;51.472;5.712;2023-07-02T04:16:02;100681.16;;;21.55;61.29
42105;BME280;70664;51.472;5.712;2023-07-02T04:18:28;100679.47;;;21.54;61.27
42105;BME280;70664;51.472;5.712;2023-07-02T04:20:55;100675.16;;;21.53;61.39
42105;BME280;70664;51.472;5.712;2023-07-02T04:23:21;100682.09;;;21.54;61.43
42105;BME280;70664;51.472;5.712;2023-07-02T04:25:47;100686.50;;;21.53;61.55
42105;BME280;70664;51.472;5.712;2023-07-02T04:28:13;100685.63;;;21.53;61.23
42105;BME280;70664;51.472;5.712;2023-07-02T04:30:39;100684.78;;;21.52;61.53
42105;BME280;70664;51.472;5.712;2023-07-02T04:33:04;100683.88;;;21.53;61.26
42105;BME280;70664;51.472;5.712;2023-07-02T04:35:34;100689.16;;;21.52;61.28
42105;BME280;70664;51.472;5.712;2023-07-02T04:38:00;100684.78;;;21.52;60.95
42105;BME280;70664;51.472;5.712;2023-07-02T04:40:27;100688.25;;;21.53;61.04
42105;BME280;70664;51.472;5.712;2023-07-02T04:42:53;100689.94;;;21.54;60.74
42105;BME280;70664;51.472;5.712;2023-07-02T04:45:25;100696.03;;;21.54;61.18
42105;BME280;70664;51.472;5.712;2023-07-02T04:47:51;100694.34;;;21.53;61.41
42105;BME280;70664;51.472;5.712;2023-07-02T04:50:18;100693.47;;;21.53;61.33
42105;BME280;70664;51.472;5.712;2023-07-02T04:52:45;100698.69;;;21.53;61.37
42105;BME280;70664;51.472;5.712;2023-07-02T04:55:11;100696.94;;;21.53;60.61
42105;BME280;70664;51.472;5.712;2023-07-02T04:57:37;100701.25;;;21.54;60.99
42105;BME280;70664;51.472;5.712;2023-07-02T05:00:04;100702.09;;;21.55;60.80
42105;BME280;70664;51.472;5.712;2023-07-02T05:02:31;100704.78;;;21.53;61.30
42105;BME280;70664;51.472;5.712;2023-07-02T05:04:57;100703.09;;;21.52;61.34
42105;BME280;70664;51.472;5.712;2023-07-02T05:07:23;100704.72;;;21.55;60.80
42105;BME280;70664;51.472;5.712;2023-07-02T05:09:49;100700.41;;;21.54;61.03
42105;BME280;70664;51.472;5.712;2023-07-02T05:12:18;100711.72;;;21.54;61.00
42105;BME280;70664;51.472;5.712;2023-07-02T05:14:44;100709.94;;;21.55;60.87
42105;BME280;70664;51.472;5.712;2023-07-02T05:17:10;100716.97;;;21.54;60.99
42105;BME280;70664;51.472;5.712;2023-07-02T05:19:36;100716.09;;;21.54;61.48
42105;BME280;70664;51.472;5.712;2023-07-02T05:22:02;100721.31;;;21.54;60.88
42105;BME280;70664;51.472;5.712;2023-07-02T05:24:28;100728.25;;;21.55;60.75
42105;BME280;70664;51.472;5.712;2023-07-02T05:26:54;100729.13;;;21.55;60.61
42105;BME280;70664;51.472;5.712;2023-07-02T05:29:19;100728.25;;;21.55;60.81
42105;BME280;70664;51.472;5.712;2023-07-02T05:31:45;100722.25;;;21.53;61.03
42105;BME280;70664;51.472;5.712;2023-07-02T05:34:11;100730.97;;;21.53;61.20
42105;BME280;70664;51.472;5.712;2023-07-02T05:36:38;100732.66;;;21.54;61.23
42105;BME280;70664;51.472;5.712;2023-07-02T05:39:04;100737.94;;;21.53;61.09
42105;BME280;70664;51.472;5.712;2023-07-02T05:41:29;100734.50;;;21.52;61.27
42105;BME280;70664;51.472;5.712;2023-07-02T05:44:00;100745.78;;;21.53;61.54
42105;BME280;70664;51.472;5.712;2023-07-02T05:46:26;100747.56;;;21.52;61.43
42105;BME280;70664;51.472;5.712;2023-07-02T05:48:51;100742.34;;;21.52;61.31
42105;BME280;70664;51.472;5.712;2023-07-02T05:51:21;100751.88;;;21.53;60.95
42105;BME280;70664;51.472;5.712;2023-07-02T05:53:48;100745.75;;;21.54;60.95
42105;BME280;70664;51.472;5.712;2023-07-02T05:56:14;100743.81;;;21.58;61.17
42105;BME280;70664;51.472;5.712;2023-07-02T05:58:39;100749.13;;;21.57;61.06
42105;BME280;70664;51.472;5.712;2023-07-02T06:01:05;100752.66;;;21.55;61.14
42105;BME280;70664;51.472;5.712;2023-07-02T06:03:32;100748.34;;;21.54;60.68
42105;BME280;70664;51.472;5.712;2023-07-02T06:05:58;100755.28;;;21.55;61.21
42105;BME280;70664;51.472;5.712;2023-07-02T06:08:24;100761.44;;;21.54;61.12
42105;BME280;70664;51.472;5.712;2023-07-02T06:10:51;100762.34;;;21.53;60.81
42105;BME280;70664;51.472;5.712;2023-07-02T06:13:17;100772.81;;;21.53;61.10
42105;BME280;70664;51.472;5.712;2023-07-02T06:15:43;100780.66;;;21.53;60.90
42105;BME280;70664;51.472;5.712;2023-07-02T06:18:09;100783.28;;;21.53;60.67
42105;BME280;70664;51.472;5.712;2023-07-02T06:20:35;100774.56;;;21.53;60.74
42105;BME280;70664;51.472;5.712;2023-07-02T06:23:01;100783.28;;;21.53;60.82
42105;BME280;70664;51.472;5.712;2023-07-02T06:25:26;100780.66;;;21.53;60.70
42105;BME280;70664;51.472;5.712;2023-07-02T06:27:52;100779.75;;;21.54;60.68
42105;BME280;70664;51.472;5.712;2023-07-02T06:30:25;100784.97;;;21.54;60.58
42105;BME280;70664;51.472;5.712;2023-07-02T06:32:53;100786.72;;;21.54;60.76
42105;BME280;70664;51.472;5.712;2023-07-02T06:35:19;100783.28;;;21.53;60.82
42105;BME280;70664;51.472;5.712;2023-07-02T06:37:45;100786.72;;;21.54;60.67
42105;BME280;70664;51.472;5.712;2023-07-02T06:40:11;100792.88;;;21.53;60.68
42105;BME280;70664;51.472;5.712;2023-07-02T06:42:37;100790.25;;;21.53;60.82
42105;BME280;70664;51.472;5.712;2023-07-02T06:45:04;100805.13;;;21.52;60.68
42105;BME280;70664;51.472;5.712;2023-07-02T06:47:30;100803.34;;;21.53;60.67
42105;BME280;70664;51.472;5.712;2023-07-02T06:49:56;100809.44;;;21.53;60.35
42105;BME280;70664;51.472;5.712;2023-07-02T06:52:22;100808.56;;;21.53;60.50
42105;BME280;70664;51.472;5.712;2023-07-02T06:54:48;100812.97;;;21.52;60.41
42105;BME280;70664;51.472;5.712;2023-07-02T06:57:13;100810.34;;;21.52;60.36
42105;BME280;70664;51.472;5.712;2023-07-02T06:59:39;100818.19;;;21.52;60.33
42105;BME280;70664;51.472;5.712;2023-07-02T07:02:06;100827.78;;;21.52;60.63
42105;BME280;70664;51.472;5.712;2023-07-02T07:04:32;100815.56;;;21.52;60.05
42105;BME280;70664;51.472;5.712;2023-07-02T07:07:01;100823.44;;;21.52;60.05
42105;BME280;70664;51.472;5.712;2023-07-02T07:09:31;100830.34;;;21.53;60.00
42105;BME280;70664;51.472;5.712;2023-07-02T07:11:57;100821.66;;;21.53;59.91
42105;BME280;70664;51.472;5.712;2023-07-02T07:14:23;100830.41;;;21.52;60.16
42105;BME280;70664;51.472;5.712;2023-07-02T07:16:49;100826.75;;;21.56;59.89
42105;BME280;70664;51.472;5.712;2023-07-02T07:19:16;100826.84;;;21.54;59.68
42105;BME280;70664;51.472;5.712;2023-07-02T07:21:42;100836.25;;;21.59;58.99
42105;BME280;70664;51.472;5.712;2023-07-02T07:24:09;100824.13;;;21.56;59.55
42105;BME280;70664;51.472;5.712;2023-07-02T07:26:35;100833.75;;;21.55;59.28
42105;BME280;70664;51.472;5.712;2023-07-02T07:29:01;100836.38;;;21.55;59.62
42105;BME280;70664;51.472;5.712;2023-07-02T07:31:26;100839.91;;;21.54;59.44
42105;BME280;70664;51.472;5.712;2023-07-02T07:33:54;100839.91;;;21.54;59.77
42105;BME280;70664;51.472;5.712;2023-07-02T07:36:19;100842.53;;;21.54;59.51
42105;BME280;70664;51.472;5.712;2023-07-02T07:38:45;100846.91;;;21.54;59.83
42105;BME280;70664;51.472;5.712;2023-07-02T07:41:11;100846.91;;;21.54;59.77
42105;BME280;70664;51.472;5.712;2023-07-02T07:43:37;100857.34;;;21.54;59.64
42105;BME280;70664;51.472;5.712;2023-07-02T07:46:03;100858.22;;;21.54;59.68
42105;BME280;70664;51.472;5.712;2023-07-02T07:48:29;100859.97;;;21.54;59.56
42105;BME280;70664;51.472;5.712;2023-07-02T07:50:55;100863.38;;;21.56;59.72
42105;BME280;70664;51.472;5.712;2023-07-02T07:53:20;100865.16;;;21.55;59.62
42105;BME280;70664;51.472;5.712;2023-07-02T07:55:46;100856.44;;;21.55;59.46
42105;BME280;70664;51.472;5.712;2023-07-02T07:58:12;100858.22;;;21.54;59.54
42105;BME280;70664;51.472;5.712;2023-07-02T08:00:38;100857.31;;;21.55;58.88
42105;BME280;70664;51.472;5.712;2023-07-02T08:03:04;100866.13;;;21.53;54.54
42105;BME280;70664;51.472;5.712;2023-07-02T08:05:31;100859.31;;;21.49;53.27
42105;BME280;70664;51.472;5.712;2023-07-02T08:07:56;100863.00;;;21.45;51.22
42105;BME280;70664;51.472;5.712;2023-07-02T08:10:23;100854.38;;;21.43;50.32
42105;BME280;70664;51.472;5.712;2023-07-02T08:12:50;100863.97;;;21.42;50.58
42105;BME280;70664;51.472;5.712;2023-07-02T08:15:18;100862.13;;;21.44;50.13
42105;BME280;70664;51.472;5.712;2023-07-02T08:17:44;100863.03;;;21.43;49.14
42105;BME280;70664;51.472;5.712;2023-07-02T08:20:11;100868.22;;;21.45;50.07
42105;BME280;70664;51.472;5.712;2023-07-02T08:22:40;100875.28;;;21.43;48.79
42105;BME280;70664;51.472;5.712;2023-07-02T08:25:07;100874.75;;;21.34;47.73
42105;BME280;70664;51.472;5.712;2023-07-02T08:27:33;100876.69;;;21.29;47.19
42105;BME280;70664;51.472;5.712;2023-07-02T08:29:59;100878.59;;;21.25;46.43
42105;BME280;70664;51.472;5.712;2023-07-02T08:32:25;100870.75;;;21.25;46.68
42105;BME280;70664;51.472;5.712;2023-07-02T08:34:51;100878.53;;;21.27;46.44
42105;BME280;70664;51.472;5.712;2023-07-02T08:37:20;100879.38;;;21.28;46.36
42105;BME280;70664;51.472;5.712;2023-07-02T08:39:48;100887.28;;;21.26;45.92
42105;BME280;70664;51.472;5.712;2023-07-02T08:42:14;100889.19;;;21.22;45.14
42105;BME280;70664;51.472;5.712;2023-07-02T08:44:42;100890.81;;;21.25;45.22
42105;BME280;70664;51.472;5.712;2023-07-02T08:47:08;100884.16;;;21.18;43.99
42105;BME280;70664;51.472;5.712;2023-07-02T08:49:34;100900.66;;;21.18;43.92
42105;BME280;70664;51.472;5.712;2023-07-02T08:52:00;100890.13;;;21.20;43.87
42105;BME280;70664;51.472;5.712;2023-07-02T08:54:26;100901.34;;;21.23;43.63
42105;BME280;70664;51.472;5.712;2023-07-02T08:56:52;100893.50;;;21.23;43.32
42105;BME280;70664;51.472;5.712;2023-07-02T08:59:17;100913.44;;;21.26;43.43
42105;BME280;70664;51.472;5.712;2023-07-02T09:01:51;100895.19;;;21.24;42.89
42105;BME280;70664;51.472;5.712;2023-07-02T09:04:24;100899.69;;;21.21;43.17
42105;BME280;70664;51.472;5.712;2023-07-02T09:07:05;100891.72;;;21.24;42.93
42105;BME280;70664;51.472;5.712;2023-07-02T09:09:32;100906.69;;;21.20;42.63
42105;BME280;70664;51.472;5.712;2023-07-02T09:11:58;100899.03;;;21.16;42.70
42105;BME280;70664;51.472;5.712;2023-07-02T09:14:26;100892.94;;;21.15;43.23
42105;BME280;70664;51.472;5.712;2023-07-02T09:17:04;100901.47;;;21.20;43.17
42105;BME280;70664;51.472;5.712;2023-07-02T09:19:30;100897.72;;;21.26;43.77
42105;BME280;70664;51.472;5.712;2023-07-02T09:21:58;100897.81;;;21.24;43.88
42105;BME280;70664;51.472;5.712;2023-07-02T09:24:30;100901.09;;;21.30;44.12
42105;BME280;70664;51.472;5.712;2023-07-02T09:27:01;100902.78;;;21.31;44.24
42105;BME280;70664;51.472;5.712;2023-07-02T09:29:34;100900.47;;;21.23;43.83
42105;BME280;70664;51.472;5.712;2023-07-02T09:32:02;100904.75;;;21.25;43.97
42105;BME280;70664;51.472;5.712;2023-07-02T09:34:34;100889.88;;;21.26;43.30
42105;BME280;70664;51.472;5.712;2023-07-02T09:37:02;100892.69;;;21.21;42.82
42105;BME280;70664;51.472;5.712;2023-07-02T09:39:34;100891.72;;;21.24;43.15
42105;BME280;70664;51.472;5.712;2023-07-02T09:42:05;100897.81;;;21.24;42.98
42105;BME280;70664;51.472;5.712;2023-07-02T09:44:34;100898.59;;;21.27;43.84
42105;BME280;70664;51.472;5.712;2023-07-02T09:47:08;100889.72;;;21.31;44.67
42105;BME280;70664;51.472;5.712;2023-07-02T09:49:39;100888.97;;;21.27;44.41
42105;BME280;70664;51.472;5.712;2023-07-02T09:52:11;100900.09;;;21.32;44.92
42105;BME280;70664;51.472;5.712;2023-07-02T09:54:38;100890.47;;;21.33;45.00
42105;BME280;70664;51.472;5.712;2023-07-02T09:57:05;100907.25;;;21.29;43.06
42105;BME280;70664;51.472;5.712;2023-07-02T09:59:35;100890.63;;;21.30;43.14
42105;BME280;70664;51.472;5.712;2023-07-02T10:02:01;100897.63;;;21.29;42.65
42105;BME280;70664;51.472;5.712;2023-07-02T10:04:39;100896.66;;;21.32;44.07
42105;BME280;70664;51.472;5.712;2023-07-02T10:07:05;100903.50;;;21.34;44.18
42105;BME280;70664;51.472;5.712;2023-07-02T10:09:39;100901.81;;;21.33;43.87
42105;BME280;70664;51.472;5.712;2023-07-02T10:12:26;100909.66;;;21.33;43.77
42105;BME280;70664;51.472;5.712;2023-07-02T10:14:55;100908.88;;;21.31;42.99
42105;BME280;70664;51.472;5.712;2023-07-02T10:17:35;100905.25;;;21.34;44.23
42105;BME280;70664;51.472;5.712;2023-07-02T10:20:07;100915.72;;;21.34;44.39
42105;BME280;70664;51.472;5.712;2023-07-02T10:22:50;100917.50;;;21.33;43.85
42105;BME280;70664;51.472;5.712;2023-07-02T10:25:27;100909.66;;;21.33;43.49
42105;BME280;70664;51.472;5.712;2023-07-02T10:27:54;100908.94;;;21.30;43.31
42105;BME280;70664;51.472;5.712;2023-07-02T10:30:35;100914.22;;;21.28;43.57
42105;BME280;70664;51.472;5.712;2023-07-02T10:33:17;100914.22;;;21.28;43.69
42105;BME280;70664;51.472;5.712;2023-07-02T10:35:46;100909.00;;;21.28;43.78
42105;BME280;70664;51.472;5.712;2023-07-02T10:38:23;100917.50;;;21.33;45.30
42105;BME280;70664;51.472;5.712;2023-07-02T10:40:59;100915.72;;;21.34;45.45
42105;BME280;70664;51.472;5.712;2023-07-02T10:43:30;100926.25;;;21.32;44.20
42105;BME280;70664;51.472;5.712;2023-07-02T10:45:58;100921.09;;;21.31;44.58
42105;BME280;70664;51.472;5.712;2023-07-02T10:48:28;100914.28;;;21.27;43.95
42105;BME280;70664;51.472;5.712;2023-07-02T10:50:54;100928.28;;;21.25;44.52
42105;BME280;70664;51.472;5.712;2023-07-02T10:53:20;100931.69;;;21.28;44.26
42105;BME280;70664;51.472;5.712;2023-07-02T10:55:57;100933.56;;;21.24;44.28
42105;BME280;70664;51.472;5.712;2023-07-02T10:58:25;100927.38;;;21.27;44.41
42105;BME280;70664;51.472;5.712;2023-07-02T11:00:52;100927.28;;;21.28;43.87
42105;BME280;70664;51.472;5.712;2023-07-02T11:03:23;100926.38;;;21.29;44.50
42105;BME280;70664;51.472;5.712;2023-07-02T11:05:50;100932.41;;;21.31;44.64
42105;BME280;70664;51.472;5.712;2023-07-02T11:08:16;100935.22;;;21.27;43.97
42105;BME280;70664;51.472;5.712;2023-07-02T11:10:43;100934.22;;;21.29;44.45
42105;BME280;70664;51.472;5.712;2023-07-02T11:13:18;100944.56;;;21.32;44.90
42105;BME280;70664;51.472;5.712;2023-07-02T11:15:44;100935.72;;;21.35;45.28
42105;BME280;70664;51.472;5.712;2023-07-02T11:18:17;100941.03;;;21.33;44.79
42105;BME280;70664;51.472;5.712;2023-07-02T11:20:46;100937.44;;;21.36;45.46
42105;BME280;70664;51.472;5.712;2023-07-02T11:23:23;100937.44;;;21.36;45.60
42105;BME280;70664;51.472;5.712;2023-07-02T11:26:00;100940.13;;;21.34;45.53
42105;BME280;70664;51.472;5.712;2023-07-02T11:28:28;100935.69;;;21.36;45.55
42105;BME280;70664;51.472;5.712;2023-07-02T11:30:54;100938.31;;;21.36;45.59
42105;BME280;70664;51.472;5.712;2023-07-02T11:35:58;100934.91;;;21.34;45.03
42105;BME280;70664;51.472;5.712;2023-07-02T11:38:24;100939.34;;;21.32;45.91
42105;BME280;70664;51.472;5.712;2023-07-02T11:40:49;100934.94;;;21.33;45.48
42105;BME280;70664;51.472;5.712;2023-07-02T11:43:15;100937.56;;;21.33;44.91
42105;BME280;70664;51.472;5.712;2023-07-02T11:45:41;100922.72;;;21.33;45.65
42105;BME280;70664;51.472;5.712;2023-07-02T11:48:07;100931.38;;;21.35;45.01
42105;BME280;70664;51.472;5.712;2023-07-02T11:50:33;100927.84;;;21.36;45.53
42105;BME280;70664;51.472;5.712;2023-07-02T11:52:58;100932.19;;;21.36;45.85
42105;BME280;70664;51.472;5.712;2023-07-02T11:55:24;100927.84;;;21.36;45.89
42105;BME280;70664;51.472;5.712;2023-07-02T11:57:50;100930.38;;;21.38;46.31
42105;BME280;70664;51.472;5.712;2023-07-02T12:00:16;100917.38;;;21.36;46.44
42105;BME280;70664;51.472;5.712;2023-07-02T12:02:42;100930.38;;;21.38;46.31
42105;BME280;70664;51.472;5.712;2023-07-02T12:05:08;100937.38;;;21.37;46.41
42105;BME280;70664;51.472;5.712;2023-07-02T12:07:34;100940.06;;;21.36;46.24
42105;BME280;70664;51.472;5.712;2023-07-02T12:10:00;100944.50;;;21.34;46.57
42105;BME280;70664;51.472;5.712;2023-07-02T12:12:26;100930.56;;;21.33;46.20
42105;BME280;70664;51.472;5.712;2023-07-02T12:14:52;100940.16;;;21.33;46.43
42105;BME280;70664;51.472;5.712;2023-07-02T12:17:18;100943.56;;;21.35;46.83
42105;BME280;70664;51.472;5.712;2023-07-02T12:19:44;100944.38;;;21.37;47.13
42105;BME280;70664;51.472;5.712;2023-07-02T12:22:10;100940.84;;;21.38;47.19
42105;BME280;70664;51.472;5.712;2023-07-02T12:24:35;100940.84;;;21.38;46.94
42105;BME280;70664;51.472;5.712;2023-07-02T12:27:02;100945.16;;;21.39;46.47
42105;BME280;70664;51.472;5.712;2023-07-02T12:29:28;100945.16;;;21.39;46.86
42105;BME280;70664;51.472;5.712;2023-07-02T12:31:54;100943.41;;;21.39;45.95
42105;BME280;70664;51.472;5.712;2023-07-02T12:34:20;100941.72;;;21.38;46.27
42105;BME280;70664;51.472;5.712;2023-07-02T12:36:45;100930.38;;;21.38;46.42
42105;BME280;70664;51.472;5.712;2023-07-02T12:39:11;100934.66;;;21.40;46.20
42105;BME280;70664;51.472;5.712;2023-07-02T12:41:37;100931.16;;;21.40;46.66
42105;BME280;70664;51.472;5.712;2023-07-02T12:44:03;100921.56;;;21.40;46.42
42105;BME280;70664;51.472;5.712;2023-07-02T12:46:28;100928.13;;;21.51;45.70
42105;BME280;70664;51.472;5.712;2023-07-02T12:48:54;100932.31;;;21.55;45.22
42105;BME280;70664;51.472;5.712;2023-07-02T12:51:20;100921.06;;;21.53;44.37
42105;BME280;70664;51.472;5.712;2023-07-02T12:53:46;100925.38;;;21.54;44.07
42105;BME280;70664;51.472;5.712;2023-07-02T12:56:12;100922.84;;;21.52;44.21
42105;BME280;70664;51.472;5.712;2023-07-02T12:58:38;100929.81;;;21.52;44.88